sensor_id;sensor_type;location;lat;lon;timestamp;temperature;humidity
52513;DHT22;38422;53.172;6.974;2023-04-24T00:01:16;12.80;99.90
52513;DHT22;38422;53.172;6.974;2023-04-24T00:03:42;12.80;99.90
52513;DHT22;38422;53.172;6.974;2023-04-24T00:06:09;12.70;99.90
52513;DHT22;38422;53.172;6.974;2023-04-24T00:08:35;12.60;99.90
52513;DHT22;38422;53.172;6.974;2023-04-24T00:11:01;12.60;99.90
52513;DHT22;38422;53.172;6.974;2023-04-24T00:13:27;12.60;99.90
52513;DHT22;38422;53.172;6.974;2023-04-24T00:15:54;12.60;99.90
52513;DHT22;38422;53.172;6.974;2023-04-24T00:18:20;12.50;99.90
52513;DHT22;38422;53.172;6.974;2023-04-24T00:20:46;12.30;99.90
52513;DHT22;38422;53.172;6.974;2023-04-24T00:23:12;12.30;99.90
52513;DHT22;38422;53.172;6.974;2023-04-24T00:25:38;12.20;99.90
52513;DHT22;38422;53.172;6.974;2023-04-24T00:28:04;12.10;99.90
52513;DHT22;38422;53.172;6.974;2023-04-24T00:30:30;12.00;99.90
52513;DHT22;38422;53.172;6.974;2023-04-24T00:32:55;12.00;99.90
52513;DHT22;38422;53.172;6.974;2023-04-24T00:35:21;12.00;99.90
52513;DHT22;38422;53.172;6.974;2023-04-24T00:37:47;12.00;99.90
52513;DHT22;38422;53.172;6.974;2023-04-24T00:40:13;12.00;99.90
52513;DHT22;38422;53.172;6.974;2023-04-24T00:42:40;11.90;99.90
52513;DHT22;38422;53.172;6.974;2023-04-24T00:45:06;11.90;99.90
52513;DHT22;38422;53.172;6.974;2023-04-24T00:47:33;11.90;99.90
52513;DHT22;38422;53.172;6.974;2023-04-24T00:50:04;11.80;99.90
52513;DHT22;38422;53.172;6.974;2023-04-24T00:52:30;11.70;99.90
52513;DHT22;38422;53.172;6.974;2023-04-24T00:54:59;11.70;99.90
52513;DHT22;38422;53.172;6.974;2023-04-24T00:57:25;11.70;99.90
52513;DHT22;38422;53.172;6.974;2023-04-24T00:59:52;11.70;99.90
52513;DHT22;38422;53.172;6.974;2023-04-24T01:02:19;11.70;99.90
52513;DHT22;38422;53.172;6.974;2023-04-24T01:04:45;11.70;99.90
52513;DHT22;38422;53.172;6.974;2023-04-24T01:07:11;11.70;99.90
52513;DHT22;38422;53.172;6.974;2023-04-24T01:09:38;11.70;99.90
52513;DHT22;38422;53.172;6.974;2023-04-24T01:12:05;11.70;99.90
52513;DHT22;38422;53.172;6.974;2023-04-24T01:14:31;11.70;99.90
52513;DHT22;38422;53.172;6.974;2023-04-24T01:16:57;11.70;99.90
52513;DHT22;38422;53.172;6.974;2023-04-24T01:19:23;11.70;99.90
52513;DHT22;38422;53.172;6.974;2023-04-24T01:21:51;11.70;99.90
52513;DHT22;38422;53.172;6.974;2023-04-24T01:24:19;11.70;99.90
52513;DHT22;38422;53.172;6.974;2023-04-24T01:26:45;11.70;99.90
52513;DHT22;38422;53.172;6.974;2023-04-24T01:29:11;11.70;99.90
52513;DHT22;38422;53.172;6.974;2023-04-24T01:31:39;11.70;99.90
52513;DHT22;38422;53.172;6.974;2023-04-24T01:34:05;11.70;99.90
52513;DHT22;38422;53.172;6.974;2023-04-24T01:36:32;11.60;99.90
52513;DHT22;38422;53.172;6.974;2023-04-24T01:38:58;11.60;99.90
52513;DHT22;38422;53.172;6.974;2023-04-24T01:41:24;11.50;99.90
52513;DHT22;38422;53.172;6.974;2023-04-24T01:43:50;11.40;99.90
52513;DHT22;38422;53.172;6.974;2023-04-24T01:46:16;11.40;99.90
52513;DHT22;38422;53.172;6.974;2023-04-24T01:48:42;11.30;99.90
52513;DHT22;38422;53.172;6.974;2023-04-24T01:51:08;11.30;99.90
52513;DHT22;38422;53.172;6.974;2023-04-24T01:53:33;11.30;99.90
52513;DHT22;38422;53.172;6.974;2023-04-24T01:55:59;11.30;99.90
52513;DHT22;38422;53.172;6.974;2023-04-24T01:58:26;11.20;99.90
52513;DHT22;38422;53.172;6.974;2023-04-24T02:00:52;11.20;99.90
52513;DHT22;38422;53.172;6.974;2023-04-24T02:03:18;11.20;99.90
52513;DHT22;38422;53.172;6.974;2023-04-24T02:05:44;11.20;99.90
52513;DHT22;38422;53.172;6.974;2023-04-24T02:08:10;11.20;99.90
52513;DHT22;38422;53.172;6.974;2023-04-24T02:10:36;11.20;99.90
52513;DHT22;38422;53.172;6.974;2023-04-24T02:13:02;11.20;99.90
52513;DHT22;38422;53.172;6.974;2023-04-24T02:15:28;11.20;99.90
52513;DHT22;38422;53.172;6.974;2023-04-24T02:17:53;11.20;99.90
52513;DHT22;38422;53.172;6.974;2023-04-24T02:20:19;11.30;99.90
52513;DHT22;38422;53.172;6.974;2023-04-24T02:22:45;11.20;99.90
52513;DHT22;38422;53.172;6.974;2023-04-24T02:25:10;11.20;99.90
52513;DHT22;38422;53.172;6.974;2023-04-24T02:27:36;11.20;99.90
52513;DHT22;38422;53.172;6.974;2023-04-24T02:30:02;11.20;99.90
52513;DHT22;38422;53.172;6.974;2023-04-24T02:32:28;11.10;99.90
52513;DHT22;38422;53.172;6.974;2023-04-24T02:34:54;11.00;99.90
52513;DHT22;38422;53.172;6.974;2023-04-24T02:37:19;11.10;99.90
52513;DHT22;38422;53.172;6.974;2023-04-24T02:39:45;11.00;99.90
52513;DHT22;38422;53.172;6.974;2023-04-24T02:42:11;11.00;99.90
52513;DHT22;38422;53.172;6.974;2023-04-24T02:44:36;11.10;99.90
52513;DHT22;38422;53.172;6.974;2023-04-24T02:47:02;11.10;99.90
52513;DHT22;38422;53.172;6.974;2023-04-24T02:49:28;11.10;99.90
52513;DHT22;38422;53.172;6.974;2023-04-24T02:51:54;11.10;99.90
52513;DHT22;38422;53.172;6.974;2023-04-24T02:54:20;11.10;99.90
52513;DHT22;38422;53.172;6.974;2023-04-24T02:56:45;11.10;99.90
52513;DHT22;38422;53.172;6.974;2023-04-24T02:59:11;11.10;99.90
52513;DHT22;38422;53.172;6.974;2023-04-24T03:01:37;11.00;99.90
52513;DHT22;38422;53.172;6.974;2023-04-24T03:04:03;10.90;99.90
52513;DHT22;38422;53.172;6.974;2023-04-24T03:06:29;10.80;99.90
52513;DHT22;38422;53.172;6.974;2023-04-24T03:08:56;10.70;99.90
52513;DHT22;38422;53.172;6.974;2023-04-24T03:11:22;10.70;99.90
52513;DHT22;38422;53.172;6.974;2023-04-24T03:13:48;10.60;99.90
52513;DHT22;38422;53.172;6.974;2023-04-24T03:16:13;10.60;99.90
52513;DHT22;38422;53.172;6.974;2023-04-24T03:18:39;10.60;99.90
52513;DHT22;38422;53.172;6.974;2023-04-24T03:21:05;10.60;99.90
52513;DHT22;38422;53.172;6.974;2023-04-24T03:23:30;10.60;99.90
52513;DHT22;38422;53.172;6.974;2023-04-24T03:25:56;10.60;99.90
52513;DHT22;38422;53.172;6.974;2023-04-24T03:28:22;10.60;99.90
52513;DHT22;38422;53.172;6.974;2023-04-24T03:30:47;10.50;99.90
52513;DHT22;38422;53.172;6.974;2023-04-24T03:33:13;10.60;99.90
52513;DHT22;38422;53.172;6.974;2023-04-24T03:35:39;10.50;99.90
52513;DHT22;38422;53.172;6.974;2023-04-24T03:38:05;10.50;99.90
52513;DHT22;38422;53.172;6.974;2023-04-24T03:40:30;10.50;99.90
52513;DHT22;38422;53.172;6.974;2023-04-24T03:42:59;10.40;99.90
52513;DHT22;38422;53.172;6.974;2023-04-24T03:45:24;10.40;99.90
52513;DHT22;38422;53.172;6.974;2023-04-24T03:47:50;10.40;99.90
52513;DHT22;38422;53.172;6.974;2023-04-24T03:50:16;10.40;99.90
52513;DHT22;38422;53.172;6.974;2023-04-24T03:52:41;10.40;99.90
52513;DHT22;38422;53.172;6.974;2023-04-24T03:55:07;10.40;99.90
52513;DHT22;38422;53.172;6.974;2023-04-24T03:57:33;10.40;99.90
52513;DHT22;38422;53.172;6.974;2023-04-24T03:59:59;10.40;99.90
52513;DHT22;38422;53.172;6.974;2023-04-24T04:02:25;10.40;99.90
52513;DHT22;38422;53.172;6.974;2023-04-24T04:04:50;10.40;99.90
52513;DHT22;38422;53.172;6.974;2023-04-24T04:07:16;10.40;99.90
52513;DHT22;38422;53.172;6.974;2023-04-24T04:09:42;10.40;99.90
52513;DHT22;38422;53.172;6.974;2023-04-24T04:12:08;10.40;99.90
52513;DHT22;38422;53.172;6.974;2023-04-24T04:14:34;10.30;99.90
52513;DHT22;38422;53.172;6.974;2023-04-24T04:17:00;10.30;99.90
52513;DHT22;38422;53.172;6.974;2023-04-24T04:19:26;10.20;99.90
52513;DHT22;38422;53.172;6.974;2023-04-24T04:21:51;10.20;99.90
52513;DHT22;38422;53.172;6.974;2023-04-24T04:24:19;10.20;99.90
52513;DHT22;38422;53.172;6.974;2023-04-24T04:26:46;10.20;99.90
52513;DHT22;38422;53.172;6.974;2023-04-24T04:29:15;10.20;99.90
52513;DHT22;38422;53.172;6.974;2023-04-24T04:31:41;10.20;99.90
52513;DHT22;38422;53.172;6.974;2023-04-24T04:34:07;10.20;99.90
52513;DHT22;38422;53.172;6.974;2023-04-24T04:36:33;10.20;99.90
52513;DHT22;38422;53.172;6.974;2023-04-24T04:39:02;10.30;99.90
52513;DHT22;38422;53.172;6.974;2023-04-24T04:41:31;10.20;99.90
52513;DHT22;38422;53.172;6.974;2023-04-24T04:43:57;10.20;99.90
52513;DHT22;38422;53.172;6.974;2023-04-24T04:46:26;10.20;99.90
52513;DHT22;38422;53.172;6.974;2023-04-24T04:48:53;10.20;99.90
52513;DHT22;38422;53.172;6.974;2023-04-24T04:51:18;10.20;99.90
52513;DHT22;38422;53.172;6.974;2023-04-24T04:53:44;10.20;99.90
52513;DHT22;38422;53.172;6.974;2023-04-24T04:56:10;10.20;99.90
52513;DHT22;38422;53.172;6.974;2023-04-24T04:58:36;10.20;99.90
52513;DHT22;38422;53.172;6.974;2023-04-24T05:01:01;10.20;99.90
52513;DHT22;38422;53.172;6.974;2023-04-24T05:03:27;10.20;99.90
52513;DHT22;38422;53.172;6.974;2023-04-24T05:05:53;10.10;99.90
52513;DHT22;38422;53.172;6.974;2023-04-24T05:08:19;10.10;99.90
52513;DHT22;38422;53.172;6.974;2023-04-24T05:10:45;10.10;99.90
52513;DHT22;38422;53.172;6.974;2023-04-24T05:13:11;10.10;99.90
52513;DHT22;38422;53.172;6.974;2023-04-24T05:15:36;10.10;99.90
52513;DHT22;38422;53.172;6.974;2023-04-24T05:18:02;10.10;99.90
52513;DHT22;38422;53.172;6.974;2023-04-24T05:20:31;10.10;99.90
52513;DHT22;38422;53.172;6.974;2023-04-24T05:22:56;10.10;99.90
52513;DHT22;38422;53.172;6.974;2023-04-24T05:25:22;10.10;99.90
52513;DHT22;38422;53.172;6.974;2023-04-24T05:27:48;10.10;99.90
52513;DHT22;38422;53.172;6.974;2023-04-24T05:30:13;10.10;99.90
52513;DHT22;38422;53.172;6.974;2023-04-24T05:32:39;10.10;99.90
52513;DHT22;38422;53.172;6.974;2023-04-24T05:35:05;10.10;99.90
52513;DHT22;38422;53.172;6.974;2023-04-24T05:37:31;10.10;99.90
52513;DHT22;38422;53.172;6.974;2023-04-24T05:39:57;10.10;99.90
52513;DHT22;38422;53.172;6.974;2023-04-24T05:42:23;10.10;99.90
52513;DHT22;38422;53.172;6.974;2023-04-24T05:44:48;10.10;99.90
52513;DHT22;38422;53.172;6.974;2023-04-24T05:47:14;10.20;99.90
52513;DHT22;38422;53.172;6.974;2023-04-24T05:49:40;10.10;99.90
52513;DHT22;38422;53.172;6.974;2023-04-24T05:52:06;10.10;99.90
52513;DHT22;38422;53.172;6.974;2023-04-24T05:54:34;10.00;99.90
52513;DHT22;38422;53.172;6.974;2023-04-24T05:57:00;10.00;99.90
52513;DHT22;38422;53.172;6.974;2023-04-24T05:59:29;10.00;99.90
52513;DHT22;38422;53.172;6.974;2023-04-24T06:01:56;10.00;99.90
52513;DHT22;38422;53.172;6.974;2023-04-24T06:04:21;9.90;99.90
52513;DHT22;38422;53.172;6.974;2023-04-24T06:06:47;10.00;99.90
52513;DHT22;38422;53.172;6.974;2023-04-24T06:09:16;10.00;99.90
52513;DHT22;38422;53.172;6.974;2023-04-24T06:11:43;10.00;99.90
52513;DHT22;38422;53.172;6.974;2023-04-24T06:14:09;10.00;99.90
52513;DHT22;38422;53.172;6.974;2023-04-24T06:16:35;10.00;99.90
52513;DHT22;38422;53.172;6.974;2023-04-24T06:19:00;10.00;99.90
52513;DHT22;38422;53.172;6.974;2023-04-24T06:21:26;9.90;99.90
52513;DHT22;38422;53.172;6.974;2023-04-24T06:23:53;9.90;99.90
52513;DHT22;38422;53.172;6.974;2023-04-24T06:26:19;10.00;99.90
52513;DHT22;38422;53.172;6.974;2023-04-24T06:28:45;10.00;99.90
52513;DHT22;38422;53.172;6.974;2023-04-24T06:31:11;10.00;99.90
52513;DHT22;38422;53.172;6.974;2023-04-24T06:33:36;10.10;99.90
52513;DHT22;38422;53.172;6.974;2023-04-24T06:36:02;10.00;99.90
52513;DHT22;38422;53.172;6.974;2023-04-24T06:38:29;10.00;99.90
52513;DHT22;38422;53.172;6.974;2023-04-24T06:40:55;10.10;99.90
52513;DHT22;38422;53.172;6.974;2023-04-24T06:43:20;10.10;99.90
52513;DHT22;38422;53.172;6.974;2023-04-24T06:45:46;10.10;99.90
52513;DHT22;38422;53.172;6.974;2023-04-24T06:48:12;10.10;99.90
52513;DHT22;38422;53.172;6.974;2023-04-24T06:50:38;10.20;99.90
52513;DHT22;38422;53.172;6.974;2023-04-24T06:53:03;10.10;99.90
52513;DHT22;38422;53.172;6.974;2023-04-24T06:55:29;10.10;99.90
52513;DHT22;38422;53.172;6.974;2023-04-24T06:57:55;10.10;99.90
52513;DHT22;38422;53.172;6.974;2023-04-24T07:00:21;10.10;99.90
52513;DHT22;38422;53.172;6.974;2023-04-24T07:02:46;10.10;99.90
52513;DHT22;38422;53.172;6.974;2023-04-24T07:05:12;10.10;99.90
52513;DHT22;38422;53.172;6.974;2023-04-24T07:07:38;10.10;99.90
52513;DHT22;38422;53.172;6.974;2023-04-24T07:10:06;10.10;99.90
52513;DHT22;38422;53.172;6.974;2023-04-24T07:12:35;10.10;99.90
52513;DHT22;38422;53.172;6.974;2023-04-24T07:15:01;10.20;99.90
52513;DHT22;38422;53.172;6.974;2023-04-24T07:17:27;10.20;99.90
52513;DHT22;38422;53.172;6.974;2023-04-24T07:19:52;10.20;99.90
52513;DHT22;38422;53.172;6.974;2023-04-24T07:22:18;10.20;99.90
52513;DHT22;38422;53.172;6.974;2023-04-24T07:24:44;10.30;99.90
52513;DHT22;38422;53.172;6.974;2023-04-24T07:27:10;10.30;99.90
52513;DHT22;38422;53.172;6.974;2023-04-24T07:29:36;10.40;99.90
52513;DHT22;38422;53.172;6.974;2023-04-24T07:32:03;10.40;99.90
52513;DHT22;38422;53.172;6.974;2023-04-24T07:34:30;10.50;99.90
52513;DHT22;38422;53.172;6.974;2023-04-24T07:36:55;10.50;99.90
52513;DHT22;38422;53.172;6.974;2023-04-24T07:39:21;10.60;99.90
52513;DHT22;38422;53.172;6.974;2023-04-24T07:41:47;10.60;99.90
52513;DHT22;38422;53.172;6.974;2023-04-24T07:44:12;10.70;99.90
52513;DHT22;38422;53.172;6.974;2023-04-24T07:46:38;10.80;99.90
52513;DHT22;38422;53.172;6.974;2023-04-24T07:49:04;10.90;99.90
52513;DHT22;38422;53.172;6.974;2023-04-24T07:51:31;10.90;99.90
52513;DHT22;38422;53.172;6.974;2023-04-24T07:53:57;11.00;99.90
52513;DHT22;38422;53.172;6.974;2023-04-24T07:56:23;11.10;99.90
52513;DHT22;38422;53.172;6.974;2023-04-24T07:58:49;11.10;99.90
52513;DHT22;38422;53.172;6.974;2023-04-24T08:01:14;11.10;99.90
52513;DHT22;38422;53.172;6.974;2023-04-24T08:03:41;11.00;99.90
52513;DHT22;38422;53.172;6.974;2023-04-24T08:06:06;11.10;99.90
52513;DHT22;38422;53.172;6.974;2023-04-24T08:08:32;11.10;99.90
52513;DHT22;38422;53.172;6.974;2023-04-24T08:10:58;11.00;99.90
52513;DHT22;38422;53.172;6.974;2023-04-24T08:13:24;11.10;99.90
52513;DHT22;38422;53.172;6.974;2023-04-24T08:15:50;11.10;99.90
52513;DHT22;38422;53.172;6.974;2023-04-24T08:18:15;11.10;99.90
52513;DHT22;38422;53.172;6.974;2023-04-24T08:20:41;11.20;99.90
52513;DHT22;38422;53.172;6.974;2023-04-24T08:23:07;11.20;99.90
52513;DHT22;38422;53.172;6.974;2023-04-24T08:25:36;11.20;99.90
52513;DHT22;38422;53.172;6.974;2023-04-24T08:28:03;11.20;99.90
52513;DHT22;38422;53.172;6.974;2023-04-24T08:30:29;11.20;99.90
52513;DHT22;38422;53.172;6.974;2023-04-24T08:32:55;11.20;99.90
52513;DHT22;38422;53.172;6.974;2023-04-24T08:35:21;11.20;99.90
52513;DHT22;38422;53.172;6.974;2023-04-24T08:37:48;11.20;99.90
52513;DHT22;38422;53.172;6.974;2023-04-24T08:40:15;11.20;99.90
52513;DHT22;38422;53.172;6.974;2023-04-24T08:42:42;11.10;99.90
52513;DHT22;38422;53.172;6.974;2023-04-24T08:45:12;11.10;99.90
52513;DHT22;38422;53.172;6.974;2023-04-24T08:47:41;11.00;99.90
52513;DHT22;38422;53.172;6.974;2023-04-24T08:50:10;11.00;99.90
52513;DHT22;38422;53.172;6.974;2023-04-24T08:52:37;11.00;99.90
52513;DHT22;38422;53.172;6.974;2023-04-24T08:55:05;10.90;99.90
52513;DHT22;38422;53.172;6.974;2023-04-24T08:57:32;10.90;99.90
52513;DHT22;38422;53.172;6.974;2023-04-24T08:59:59;10.90;99.90
52513;DHT22;38422;53.172;6.974;2023-04-24T09:02:28;10.70;99.90
52513;DHT22;38422;53.172;6.974;2023-04-24T09:04:56;10.70;99.90
52513;DHT22;38422;53.172;6.974;2023-04-24T09:07:24;10.70;99.90
52513;DHT22;38422;53.172;6.974;2023-04-24T09:09:51;10.60;99.90
52513;DHT22;38422;53.172;6.974;2023-04-24T09:12:18;10.60;99.90
52513;DHT22;38422;53.172;6.974;2023-04-24T09:14:45;10.50;99.90
52513;DHT22;38422;53.172;6.974;2023-04-24T09:17:14;10.50;99.90
52513;DHT22;38422;53.172;6.974;2023-04-24T09:19:41;10.50;99.90
52513;DHT22;38422;53.172;6.974;2023-04-24T09:22:07;10.50;99.90
52513;DHT22;38422;53.172;6.974;2023-04-24T09:24:34;10.50;99.90
52513;DHT22;38422;53.172;6.974;2023-04-24T09:27:01;10.50;99.90
52513;DHT22;38422;53.172;6.974;2023-04-24T09:29:29;10.50;99.90
52513;DHT22;38422;53.172;6.974;2023-04-24T09:31:57;10.40;99.90
52513;DHT22;38422;53.172;6.974;2023-04-24T09:34:29;10.40;99.90
52513;DHT22;38422;53.172;6.974;2023-04-24T09:36:55;10.30;99.90
52513;DHT22;38422;53.172;6.974;2023-04-24T09:39:21;10.30;99.90
52513;DHT22;38422;53.172;6.974;2023-04-24T09:41:51;10.20;99.90
52513;DHT22;38422;53.172;6.974;2023-04-24T09:44:19;10.20;99.90
52513;DHT22;38422;53.172;6.974;2023-04-24T09:46:54;10.10;99.90
52513;DHT22;38422;53.172;6.974;2023-04-24T09:49:29;10.10;99.90
52513;DHT22;38422;53.172;6.974;2023-04-24T09:54:29;10.20;99.90
52513;DHT22;38422;53.172;6.974;2023-04-24T09:56:55;10.20;99.90
52513;DHT22;38422;53.172;6.974;2023-04-24T09:59:22;10.20;99.90
52513;DHT22;38422;53.172;6.974;2023-04-24T10:01:48;10.20;99.90
52513;DHT22;38422;53.172;6.974;2023-04-24T10:04:18;10.10;99.90
52513;DHT22;38422;53.172;6.974;2023-04-24T10:06:44;10.10;99.90
52513;DHT22;38422;53.172;6.974;2023-04-24T10:09:11;10.10;99.90
52513;DHT22;38422;53.172;6.974;2023-04-24T10:11:42;10.10;99.90
52513;DHT22;38422;53.172;6.974;2023-04-24T10:14:12;10.10;99.90
52513;DHT22;38422;53.172;6.974;2023-04-24T10:16:39;10.10;99.90
52513;DHT22;38422;53.172;6.974;2023-04-24T10:19:08;10.10;99.90
52513;DHT22;38422;53.172;6.974;2023-04-24T10:21:37;10.10;99.90
52513;DHT22;38422;53.172;6.974;2023-04-24T10:24:10;10.10;99.90
52513;DHT22;38422;53.172;6.974;2023-04-24T10:26:36;10.10;99.90
52513;DHT22;38422;53.172;6.974;2023-04-24T10:29:05;10.20;99.90
52513;DHT22;38422;53.172;6.974;2023-04-24T10:31:36;10.20;99.90
52513;DHT22;38422;53.172;6.974;2023-04-24T10:34:02;10.10;99.90
52513;DHT22;38422;53.172;6.974;2023-04-24T10:36:30;10.10;99.90
52513;DHT22;38422;53.172;6.974;2023-04-24T10:39:01;10.00;99.90
52513;DHT22;38422;53.172;6.974;2023-04-24T10:41:27;10.00;99.90
52513;DHT22;38422;53.172;6.974;2023-04-24T10:44:09;9.90;99.90
52513;DHT22;38422;53.172;6.974;2023-04-24T10:46:36;9.90;99.90
52513;DHT22;38422;53.172;6.974;2023-04-24T10:49:06;9.90;99.90
52513;DHT22;38422;53.172;6.974;2023-04-24T10:54:24;10.00;99.90
52513;DHT22;38422;53.172;6.974;2023-04-24T10:56:51;10.00;99.90
52513;DHT22;38422;53.172;6.974;2023-04-24T10:59:27;10.10;99.90
52513;DHT22;38422;53.172;6.974;2023-04-24T11:02:00;10.10;99.90
52513;DHT22;38422;53.172;6.974;2023-04-24T11:04:30;10.20;99.90
52513;DHT22;38422;53.172;6.974;2023-04-24T11:06:59;10.20;99.90
52513;DHT22;38422;53.172;6.974;2023-04-24T11:09:30;10.20;99.90
52513;DHT22;38422;53.172;6.974;2023-04-24T11:12:04;10.30;99.90
52513;DHT22;38422;53.172;6.974;2023-04-24T11:17:38;10.40;99.90
52513;DHT22;38422;53.172;6.974;2023-04-24T11:20:10;10.40;99.90
52513;DHT22;38422;53.172;6.974;2023-04-24T11:22:38;10.40;99.90
52513;DHT22;38422;53.172;6.974;2023-04-24T11:25:08;10.50;99.90
52513;DHT22;38422;53.172;6.974;2023-04-24T11:27:42;10.50;99.90
52513;DHT22;38422;53.172;6.974;2023-04-24T11:30:09;10.50;99.90
52513;DHT22;38422;53.172;6.974;2023-04-24T11:32:40;10.50;99.90
52513;DHT22;38422;53.172;6.974;2023-04-24T11:35:21;10.60;99.90
52513;DHT22;38422;53.172;6.974;2023-04-24T11:37:50;10.70;99.90
52513;DHT22;38422;53.172;6.974;2023-04-24T11:40:18;10.80;99.90
52513;DHT22;38422;53.172;6.974;2023-04-24T11:42:52;10.90;99.90
52513;DHT22;38422;53.172;6.974;2023-04-24T11:45:20;10.80;99.90
52513;DHT22;38422;53.172;6.974;2023-04-24T11:47:46;10.90;99.90
52513;DHT22;38422;53.172;6.974;2023-04-24T11:50:17;10.90;99.90
52513;DHT22;38422;53.172;6.974;2023-04-24T11:52:45;10.90;99.90
52513;DHT22;38422;53.172;6.974;2023-04-24T11:57:42;10.80;99.90
52513;DHT22;38422;53.172;6.974;2023-04-24T12:00:19;10.80;99.90
52513;DHT22;38422;53.172;6.974;2023-04-24T12:02:46;10.70;99.90
52513;DHT22;38422;53.172;6.974;2023-04-24T12:05:25;10.70;99.90
52513;DHT22;38422;53.172;6.974;2023-04-24T12:07:52;10.60;99.90
52513;DHT22;38422;53.172;6.974;2023-04-24T12:10:25;10.60;99.90
52513;DHT22;38422;53.172;6.974;2023-04-24T12:12:52;10.60;99.90
52513;DHT22;38422;53.172;6.974;2023-04-24T12:15:20;10.60;99.90
52513;DHT22;38422;53.172;6.974;2023-04-24T12:17:46;10.60;99.90
52513;DHT22;38422;53.172;6.974;2023-04-24T12:20:13;10.60;99.90
52513;DHT22;38422;53.172;6.974;2023-04-24T12:22:56;10.60;99.90
52513;DHT22;38422;53.172;6.974;2023-04-24T12:25:27;10.70;99.90
52513;DHT22;38422;53.172;6.974;2023-04-24T12:28:13;10.70;99.90
52513;DHT22;38422;53.172;6.974;2023-04-24T12:30:47;10.90;99.90
52513;DHT22;38422;53.172;6.974;2023-04-24T12:33:21;11.00;99.90
52513;DHT22;38422;53.172;6.974;2023-04-24T12:35:48;11.00;99.90
52513;DHT22;38422;53.172;6.974;2023-04-24T12:38:15;10.90;99.90
52513;DHT22;38422;53.172;6.974;2023-04-24T12:40:41;10.80;99.90
52513;DHT22;38422;53.172;6.974;2023-04-24T12:43:20;10.70;99.90
52513;DHT22;38422;53.172;6.974;2023-04-24T12:45:49;10.70;99.90
52513;DHT22;38422;53.172;6.974;2023-04-24T12:48:14;10.60;99.90
52513;DHT22;38422;53.172;6.974;2023-04-24T12:50:40;10.50;99.90
52513;DHT22;38422;53.172;6.974;2023-04-24T12:53:10;10.40;99.90
52513;DHT22;38422;53.172;6.974;2023-04-24T12:55:36;10.40;99.90
52513;DHT22;38422;53.172;6.974;2023-04-24T12:58:02;10.40;99.90
52513;DHT22;38422;53.172;6.974;2023-04-24T13:00:28;10.30;99.90
52513;DHT22;38422;53.172;6.974;2023-04-24T13:02:54;10.30;99.90
52513;DHT22;38422;53.172;6.974;2023-04-24T13:05:20;10.30;99.90
52513;DHT22;38422;53.172;6.974;2023-04-24T13:07:46;10.40;99.90
52513;DHT22;38422;53.172;6.974;2023-04-24T13:10:12;10.50;99.90
52513;DHT22;38422;53.172;6.974;2023-04-24T13:12:39;10.60;99.90
52513;DHT22;38422;53.172;6.974;2023-04-24T13:15:06;10.70;99.90
52513;DHT22;38422;53.172;6.974;2023-04-24T13:17:32;10.80;99.90
52513;DHT22;38422;53.172;6.974;2023-04-24T13:19:58;10.80;99.90
52513;DHT22;38422;53.172;6.974;2023-04-24T13:22:24;10.90;99.90
52513;DHT22;38422;53.172;6.974;2023-04-24T13:24:50;10.90;99.90
52513;DHT22;38422;53.172;6.974;2023-04-24T13:27:16;11.00;99.90
52513;DHT22;38422;53.172;6.974;2023-04-24T13:29:42;11.00;99.90
52513;DHT22;38422;53.172;6.974;2023-04-24T13:32:08;11.00;99.90
52513;DHT22;38422;53.172;6.974;2023-04-24T13:34:34;11.10;99.90
52513;DHT22;38422;53.172;6.974;2023-04-24T13:37:01;11.10;99.90
52513;DHT22;38422;53.172;6.974;2023-04-24T13:39:28;11.10;99.90
52513;DHT22;38422;53.172;6.974;2023-04-24T13:41:55;11.00;99.90
52513;DHT22;38422;53.172;6.974;2023-04-24T13:44:21;11.00;99.90
52513;DHT22;38422;53.172;6.974;2023-04-24T13:46:49;10.90;99.90
52513;DHT22;38422;53.172;6.974;2023-04-24T13:49:16;10.80;99.90
52513;DHT22;38422;53.172;6.974;2023-04-24T13:51:42;10.70;99.90
52513;DHT22;38422;53.172;6.974;2023-04-24T13:54:08;10.70;99.90
52513;DHT22;38422;53.172;6.974;2023-04-24T13:56:34;10.60;99.90
52513;DHT22;38422;53.172;6.974;2023-04-24T13:59:00;10.50;99.90
52513;DHT22;38422;53.172;6.974;2023-04-24T14:01:26;10.50;99.90
52513;DHT22;38422;53.172;6.974;2023-04-24T14:03:53;10.40;99.90
52513;DHT22;38422;53.172;6.974;2023-04-24T14:06:19;10.40;99.90
52513;DHT22;38422;53.172;6.974;2023-04-24T14:08:46;10.40;99.90
52513;DHT22;38422;53.172;6.974;2023-04-24T14:11:12;10.40;99.90
52513;DHT22;38422;53.172;6.974;2023-04-24T14:13:38;10.40;99.90
52513;DHT22;38422;53.172;6.974;2023-04-24T14:16:04;10.50;99.90
52513;DHT22;38422;53.172;6.974;2023-04-24T14:18:30;10.70;99.90
52513;DHT22;38422;53.172;6.974;2023-04-24T14:20:56;10.80;99.90
52513;DHT22;38422;53.172;6.974;2023-04-24T14:23:22;10.90;99.90
52513;DHT22;38422;53.172;6.974;2023-04-24T14:25:48;11.00;99.90
52513;DHT22;38422;53.172;6.974;2023-04-24T14:28:17;11.00;99.90
52513;DHT22;38422;53.172;6.974;2023-04-24T14:30:43;10.90;99.90
52513;DHT22;38422;53.172;6.974;2023-04-24T14:33:09;10.90;99.90
52513;DHT22;38422;53.172;6.974;2023-04-24T14:35:35;10.80;99.90
52513;DHT22;38422;53.172;6.974;2023-04-24T14:38:01;10.70;99.90
52513;DHT22;38422;53.172;6.974;2023-04-24T14:40:26;10.60;99.90
52513;DHT22;38422;53.172;6.974;2023-04-24T14:42:52;10.60;99.90
52513;DHT22;38422;53.172;6.974;2023-04-24T14:45:18;10.50;99.90
52513;DHT22;38422;53.172;6.974;2023-04-24T14:47:44;10.40;99.90
52513;DHT22;38422;53.172;6.974;2023-04-24T14:50:13;10.40;99.90
52513;DHT22;38422;53.172;6.974;2023-04-24T14:52:39;10.40;99.90
52513;DHT22;38422;53.172;6.974;2023-04-24T14:55:05;10.40;99.90
52513;DHT22;38422;53.172;6.974;2023-04-24T14:57:33;10.40;99.90
52513;DHT22;38422;53.172;6.974;2023-04-24T14:59:58;10.40;99.90
52513;DHT22;38422;53.172;6.974;2023-04-24T15:02:24;10.40;99.90
52513;DHT22;38422;53.172;6.974;2023-04-24T15:04:50;10.40;99.90
52513;DHT22;38422;53.172;6.974;2023-04-24T15:07:15;10.40;99.90
52513;DHT22;38422;53.172;6.974;2023-04-24T15:09:41;10.40;99.90
52513;DHT22;38422;53.172;6.974;2023-04-24T15:12:11;10.60;99.90
52513;DHT22;38422;53.172;6.974;2023-04-24T15:14:37;10.60;99.90
52513;DHT22;38422;53.172;6.974;2023-04-24T15:17:03;10.60;99.90
52513;DHT22;38422;53.172;6.974;2023-04-24T15:19:29;10.60;99.90
52513;DHT22;38422;53.172;6.974;2023-04-24T15:21:55;10.60;99.90
52513;DHT22;38422;53.172;6.974;2023-04-24T15:24:20;10.50;99.90
52513;DHT22;38422;53.172;6.974;2023-04-24T15:26:46;10.40;99.90
52513;DHT22;38422;53.172;6.974;2023-04-24T15:29:12;10.40;99.90
52513;DHT22;38422;53.172;6.974;2023-04-24T15:31:37;10.30;99.90
52513;DHT22;38422;53.172;6.974;2023-04-24T15:34:05;10.40;99.90
52513;DHT22;38422;53.172;6.974;2023-04-24T15:36:31;10.40;99.90
52513;DHT22;38422;53.172;6.974;2023-04-24T15:38:57;10.40;99.90